No se requiere un especial cuidado respecto a la situación meteorológica.   -   No hay avisos

Informes METAR

 

LEZL - Sevilla, Spain
Distancia de la estación: ENE 8km
Actualización: 15/12/2017 09:00
Cubierto
Cubierto
 Viento de SO
Viento: SO 17 km/h
Temperatura: 15°C
Rocío: 14°C
Humedad: 94%
Barómetro: 1018 hPa
Nubes: Cubierto
Visibilidad: 10 km
Detalles de las nubes: Cubierto 396 m
2017/12/15 08:00 LEZL 150800Z 22009KT 9999 OVC013 15/14 Q1018 NOSIG
LEMO - Morón, Spain
Distancia de la estación: SE 43km
Actualización: 15/12/2017 09:00
Llovizna, Neblina, Muy nuboso
Llovizna, Neblina, Muy nuboso
 Viento de SO
Viento: SO 9 km/h
Temperatura: 13°C
Rocío: 12°C
Humedad: 94%
Barómetro: 1018 hPa
Resumen: Llovizna, Neblina
Nubes: Muy nuboso
Visibilidad: 4 km
Detalles de las nubes: Parcialmente nuboso 305 m
Muy nuboso 396 m
2017/12/15 08:00 LEMO 150800Z 22005KT 4000 -DZ BR SCT010 BKN013 13/12 Q1018 NOSIG
LEJR - Jeréz, Spain
Distancia de la estación: S 71km
Actualización: 15/12/2017 09:00
Neblina, Muy nuboso
Neblina, Muy nuboso
 Viento de calm
Viento: Calma
Temperatura: 12°C
Rocío: 12°C
Humedad: 100%
Barómetro: 1019 hPa
Resumen: Neblina
Nubes: Muy nuboso
Visibilidad: 4 km
Detalles de las nubes: Parcialmente nuboso 518 m
Muy nuboso 762 m
2017/12/15 08:00 LEJR 150800Z 00000KT 4000 BR SCT017 BKN025 12/12 Q1019
 
LERT - Rota, Spain
Distancia de la estación: SSO 89km
Actualización: 15/12/2017 09:00
Muy nuboso
Muy nuboso
 Viento de O
Viento: O 6 km/h
Temperatura: 16°C
Rocío: 14°C
Humedad: 88%
Barómetro: 1019 hPa
Nubes: Muy nuboso
Visibilidad: 10 km
Detalles de las nubes: Poco nuboso 610 m
Muy nuboso 975 m
2017/12/15 08:00 LERT 150800Z 26003KT 230V330 9999 FEW020 BKN032 16/14 Q1019 NOSIG
LEMG - Málaga, Spain
Distancia de la estación: ESE 157km
Actualización: 15/12/2017 09:00
Parcialmente nuboso
Parcialmente nuboso
 Viento de ONO
Viento: ONO 9 km/h
Temperatura: 15°C
Rocío: 11°C
Humedad: 77%
Barómetro: 1017 hPa
Nubes: Parcialmente nuboso
Visibilidad: 10 km
Detalles de las nubes: Poco nuboso 914 m
Parcialmente nuboso 1372 m
2017/12/15 08:00 LEMG 150800Z 30005KT 9999 FEW030 SCT045 15/11 Q1017 NOSIG
LEBA - Córdoba, Spain
Distancia de la estación: ENE 115km
Actualización: 15/12/2017 09:00
Niebla, Cubierto
Niebla, Cubierto
 Viento de OSO
Viento: OSO 9 km/h
Temperatura: 11°C
Rocío: 11°C
Humedad: 100%
Barómetro: 1017 hPa
Resumen: Niebla
Nubes: Cubierto
Visibilidad: 0 km
Detalles de las nubes: Cubierto 30 m
2017/12/15 08:00 LEBA 150800Z 25005KT 0100 R21/0150N FG VV001 11/11 Q1017
 
LEGR - Granada, Spain
Distancia de la estación: E 198km
Actualización: 15/12/2017 09:00
Muy nuboso
Muy nuboso
 Viento de variable
Viento: variable 2 km/h
Temperatura: 9°C
Rocío: 9°C
Humedad: 100%
Barómetro: 1018 hPa
Nubes: Muy nuboso
Visibilidad: 8 km
Detalles de las nubes: Parcialmente nuboso 244 m
Muy nuboso 762 m
2017/12/15 08:00 LEGR 150800Z VRB01KT 8000 SCT008 BKN025 09/09 Q1018
LEAM - Almería, Spain
Distancia de la estación: E 326km
Actualización: 15/12/2017 09:00
Poco nuboso
Poco nuboso
 Viento de N
Viento: N 7 km/h
Temperatura: 12°C
Rocío: 11°C
Humedad: 94%
Barómetro: 1013 hPa
Nubes: Poco nuboso
Visibilidad: 10 km
Detalles de las nubes: Poco nuboso 305 m
2017/12/15 08:00 LEAM 150800Z 01004KT 9999 FEW010 12/11 Q1013
LEMD - Madrid/Barajas, Spain
Distancia de la estación: NNE 402km
Actualización: 15/12/2017 09:00
Poco nuboso
Poco nuboso
 Viento de variable
Viento: variable 11 km/h
Temperatura: 8°C
Sensación térmica: 6°C
Rocío: 7°C
Humedad: 93%
Barómetro: 1011 hPa
Nubes: Poco nuboso
Visibilidad: 10 km
Detalles de las nubes: Poco nuboso 274 m
2017/12/15 08:00 LEMD 150800Z VRB06KT 9999 FEW009 08/07 Q1011 WS R18L WS R18R TEMPO BKN007
 
LEVD - Valladolid, Spain
Distancia de la estación: N 492km
Actualización: 15/12/2017 09:19
Muy nuboso
Muy nuboso
 Viento de ONO
Viento: ONO 13 km/h
Temperatura: 5°C
Sensación térmica: 2°C
Rocío: 3°C
Humedad: 87%
Barómetro: 1012 hPa
Nubes: Muy nuboso
Visibilidad: 10 km
Detalles de las nubes: Poco nuboso 457 m
Muy nuboso 518 m
2017/12/15 08:19 LEVD 150819Z 29007KT 9999 FEW015TCU BKN017 05/03 Q1012
LEBL - Barcelona, Spain
Distancia de la estación: NE 816km
Actualización: 15/12/2017 09:00
Poco nuboso
Poco nuboso
 Viento de NO
Viento: NO 7 km/h
Temperatura: 10°C
Sensación térmica: 9°C
Rocío: 8°C
Humedad: 88%
Barómetro: 1005 hPa
Nubes: Poco nuboso
Visibilidad: 10 km
Detalles de las nubes: Poco nuboso 762 m
2017/12/15 08:00 LEBL 150800Z 31004KT 270V010 9999 FEW025 10/08 Q1005 NOSIG
LEVC - Valencia, Spain
Distancia de la estación: ENE 535km
Actualización: 15/12/2017 09:00
Poco nuboso
Poco nuboso
 Viento de SO
Viento: SO 11 km/h
Temperatura: 15°C
Rocío: 7°C
Humedad: 59%
Barómetro: 1008 hPa
Nubes: Poco nuboso
Visibilidad: 10 km
Detalles de las nubes: Poco nuboso 457 m
2017/12/15 08:00 LEVC 150800Z 22006KT 180V290 9999 FEW015 15/07 Q1008 NOSIG